aviador You're here:

LQMO Decoded Metar

MOSTAR in BOSNIA-HERCEGOVINA
Report Time2018-07-17 11:30:00
UTC Time2018-07-17 11:43:41
Flight Rules vfr VFR
WindVRB at 03 kt
Visibility9999 m
Phenomena:N/A
Clouds:Scattered 050 Hf
Expected CloudBase > 4,800 ft AGL from Temp-Dew spread
CeilingNone
Temp28°C (ISA +14)
Dew Point16°C (48% RH)
Heat Index28.3°C
QNH1007 hPa
Density Alt2,375 ft
Elevation354 ft
Report Wrong Elevation
Raw Report
METAR LQMO 171130Z VRB03KT 9999 SCT050 28/16 Q1007=

Extra information for LQMO:More info

Metar Taf Metar & Taf Last 4 Metars F.Rules Stats Wind Profile Meteogram Temp Stats Airport Information Weather charts Add Link Nearby VenuesMetar ALERT Operation Metar Decoded Social comments